createdAt,value
2023-03-27T00:00:37.853Z,78.40
2023-03-27T00:03:27.984Z,78.63
2023-03-27T00:06:16.444Z,78.71
2023-03-27T00:09:04.537Z,79.13
2023-03-27T00:11:51.766Z,79.50
2023-03-27T00:14:38.025Z,79.74
2023-03-27T00:17:24.803Z,80.25
2023-03-27T00:20:11.158Z,80.35
2023-03-27T00:22:57.906Z,80.80
2023-03-27T00:25:45.850Z,81.29
2023-03-27T00:28:32.389Z,81.32
2023-03-27T00:31:18.980Z,81.59
2023-03-27T00:34:06.015Z,81.65
2023-03-27T00:36:53.229Z,81.95
2023-03-27T00:39:41.288Z,82.61
2023-03-27T00:42:28.008Z,82.81
2023-03-27T00:45:19.365Z,83.00
2023-03-27T00:48:08.263Z,83.07
2023-03-27T00:50:56.915Z,83.69
2023-03-27T00:53:45.475Z,83.71
2023-03-27T00:56:33.268Z,84.20
2023-03-27T00:59:22.902Z,84.37
2023-03-27T01:02:10.639Z,84.73
2023-03-27T01:04:58.236Z,84.72
2023-03-27T01:08:00.637Z,84.89
2023-03-27T01:11:19.614Z,85.26
2023-03-27T01:14:43.436Z,85.68
2023-03-27T01:18:06.484Z,85.80
2023-03-27T01:21:14.020Z,86.06
2023-03-27T01:24:44.896Z,86.36
2023-03-27T01:27:58.023Z,86.45
2023-03-27T01:31:16.928Z,86.90
2023-03-27T01:34:14.350Z,86.85
2023-03-27T01:37:31.621Z,87.03
2023-03-27T01:40:32.088Z,87.16
2023-03-27T01:43:36.263Z,88.06
2023-03-27T01:46:41.142Z,88.15
2023-03-27T01:49:39.327Z,88.62
2023-03-27T01:52:32.986Z,88.68
2023-03-27T01:55:25.401Z,89.45
2023-03-27T01:58:28.746Z,89.78
2023-03-27T02:01:21.788Z,90.29
2023-03-27T02:04:23.562Z,90.53
2023-03-27T02:07:18.147Z,90.59
2023-03-27T02:10:14.789Z,91.07
2023-03-27T02:13:09.138Z,91.24
2023-03-27T02:15:59.476Z,91.50
2023-03-27T02:19:01.173Z,91.66
2023-03-27T02:21:47.818Z,91.75
2023-03-27T02:24:34.829Z,92.03
2023-03-27T02:27:42.935Z,92.38
2023-03-27T02:31:06.215Z,92.53
2023-03-27T02:34:31.416Z,92.59
2023-03-27T02:37:54.770Z,92.71
2023-03-27T02:41:13.712Z,92.89
2023-03-27T02:44:11.336Z,93.01
2023-03-27T02:47:39.229Z,93.63
2023-03-27T02:50:33.759Z,94.08
2023-03-27T02:53:29.897Z,94.06
2023-03-27T02:56:21.755Z,93.98
2023-03-27T02:59:38.882Z,94.18
2023-03-27T03:02:32.396Z,94.34
2023-03-27T03:05:22.566Z,94.57
2023-03-27T03:08:09.682Z,94.89
2023-03-27T03:11:04.135Z,95.10
2023-03-27T03:13:50.575Z,95.27
2023-03-27T03:16:37.191Z,95.53
2023-03-27T03:19:26.002Z,95.45
2023-03-27T03:22:15.351Z,95.34
2023-03-27T03:25:01.983Z,95.04
2023-03-27T03:27:48.745Z,94.83
2023-03-27T03:30:41.385Z,94.58
2023-03-27T03:33:30.396Z,94.43
2023-03-27T03:36:17.070Z,94.11
2023-03-27T03:39:05.177Z,93.86
2023-03-27T03:41:52.412Z,93.80
2023-03-27T03:44:39.202Z,94.03
2023-03-27T03:47:38.865Z,93.91
2023-03-27T03:50:25.699Z,94.00
2023-03-27T03:53:13.923Z,93.94
2023-03-27T03:56:00.929Z,93.93
2023-03-27T03:58:47.737Z,94.17
2023-03-27T04:01:35.051Z,94.58
2023-03-27T04:04:23.163Z,94.33
2023-03-27T04:07:30.991Z,94.13
2023-03-27T04:10:31.514Z,94.12
2023-03-27T04:13:19.365Z,94.30
2023-03-27T04:16:20.703Z,94.21
2023-03-27T04:19:10.033Z,93.89
2023-03-27T04:22:01.522Z,94.12
2023-03-27T04:24:51.114Z,94.39
2023-03-27T04:27:38.586Z,94.58
2023-03-27T04:30:36.321Z,94.34
2023-03-27T04:33:45.828Z,94.51
2023-03-27T04:37:01.829Z,94.40
2023-03-27T04:39:49.216Z,94.71
2023-03-27T04:42:43.519Z,94.55
2023-03-27T04:45:31.768Z,94.58
2023-03-27T04:48:18.632Z,94.84
2023-03-27T04:51:08.825Z,96.22
2023-03-27T04:53:55.976Z,96.29
2023-03-27T04:56:45.032Z,95.86
2023-03-27T04:59:31.501Z,95.38
2023-03-27T05:02:36.391Z,95.32
2023-03-27T05:05:30.745Z,95.07
2023-03-27T05:08:18.427Z,94.84
2023-03-27T05:11:04.831Z,95.17
2023-03-27T05:14:00.636Z,94.83
2023-03-27T05:16:51.843Z,94.53
2023-03-27T05:19:38.697Z,94.17
2023-03-27T05:22:26.932Z,93.89
2023-03-27T05:25:21.991Z,92.87
2023-03-27T05:28:08.836Z,92.72
2023-03-27T05:30:56.637Z,92.75
2023-03-27T05:33:44.329Z,91.87
2023-03-27T05:36:31.546Z,91.93
2023-03-27T05:39:19.643Z,91.79
2023-03-27T05:42:07.080Z,92.07
2023-03-27T05:44:55.608Z,92.33
2023-03-27T05:47:53.580Z,92.01
2023-03-27T05:50:41.580Z,92.30
2023-03-27T05:53:38.834Z,92.22
2023-03-27T05:56:37.429Z,92.07
2023-03-27T05:59:24.415Z,92.02
2023-03-27T06:02:19.196Z,91.92
2023-03-27T06:05:13.798Z,92.13
2023-03-27T06:08:01.785Z,92.33
2023-03-27T06:10:48.598Z,92.07
2023-03-27T06:13:42.798Z,92.18
2023-03-27T06:16:31.289Z,92.05
2023-03-27T06:19:32.837Z,91.39
2023-03-27T06:22:19.717Z,91.15
2023-03-27T06:25:08.417Z,90.39
2023-03-27T06:27:55.296Z,89.80
2023-03-27T06:30:42.383Z,89.34
2023-03-27T06:33:46.434Z,89.43
2023-03-27T06:37:04.713Z,89.88
2023-03-27T06:39:57.063Z,89.64
2023-03-27T06:43:05.318Z,89.76
2023-03-27T06:45:57.586Z,89.86
2023-03-27T06:49:03.370Z,89.57
2023-03-27T06:51:50.339Z,90.22
2023-03-27T06:54:39.943Z,90.59
2023-03-27T06:57:26.793Z,90.53
2023-03-27T07:00:23.871Z,91.05
2023-03-27T07:03:33.770Z,90.04
2023-03-27T07:06:50.038Z,90.31
2023-03-27T07:09:39.707Z,89.59
2023-03-27T07:12:27.526Z,89.13
2023-03-27T07:15:15.745Z,88.28
2023-03-27T07:18:05.947Z,87.55
2023-03-27T07:20:52.880Z,87.79
2023-03-27T07:23:41.816Z,87.76
2023-03-27T07:26:32.837Z,87.56
2023-03-27T07:29:21.133Z,86.96
2023-03-27T07:32:12.241Z,85.82
2023-03-27T07:35:06.127Z,86.16
2023-03-27T07:38:11.744Z,87.36
2023-03-27T07:41:06.130Z,87.76
2023-03-27T07:44:19.531Z,87.27
2023-03-27T07:47:15.067Z,86.63
2023-03-27T07:50:02.513Z,86.99
2023-03-27T07:52:49.848Z,86.77
2023-03-27T07:55:37.205Z,86.94
2023-03-27T07:58:27.401Z,87.27
2023-03-27T08:01:14.837Z,87.56
2023-03-27T08:04:03.267Z,88.07
2023-03-27T08:06:51.141Z,88.37
2023-03-27T08:09:39.735Z,88.73
2023-03-27T08:12:26.425Z,88.63
2023-03-27T08:15:18.170Z,88.65
2023-03-27T08:18:06.268Z,88.82
2023-03-27T08:20:59.460Z,89.33
2023-03-27T08:23:47.040Z,89.27
2023-03-27T08:26:51.717Z,88.78
2023-03-27T08:29:39.537Z,88.02
2023-03-27T08:32:27.305Z,86.93
2023-03-27T08:35:14.064Z,83.95
2023-03-27T08:38:00.745Z,82.34
2023-03-27T08:41:17.173Z,80.28
2023-03-27T08:44:17.955Z,80.58
2023-03-27T08:47:18.658Z,78.15
2023-03-27T08:50:35.684Z,76.78
2023-03-27T08:54:03.120Z,76.46
2023-03-27T08:56:50.935Z,77.61
2023-03-27T08:59:38.262Z,75.38
2023-03-27T09:02:50.900Z,68.93
2023-03-27T09:06:07.998Z,65.23
2023-03-27T09:09:23.249Z,63.59
2023-03-27T09:13:11.443Z,62.04
2023-03-27T09:16:25.637Z,63.91
2023-03-27T09:19:21.027Z,58.54
2023-03-27T09:22:22.837Z,52.05
2023-03-27T09:25:52.945Z,46.00
2023-03-27T09:29:00.995Z,44.12
2023-03-27T09:31:56.925Z,43.88
2023-03-27T09:34:45.475Z,43.95
2023-03-27T09:37:37.203Z,44.53
2023-03-27T09:40:52.673Z,47.21
2023-03-27T09:43:53.304Z,49.79
2023-03-27T09:46:47.357Z,52.59
2023-03-27T09:49:35.306Z,53.93
2023-03-27T09:52:37.721Z,54.25
2023-03-27T09:55:55.078Z,54.81
2023-03-27T09:58:48.430Z,50.42
2023-03-27T10:01:35.483Z,48.90
2023-03-27T10:04:28.594Z,46.35
2023-03-27T10:07:26.263Z,41.05
2023-03-27T10:10:37.237Z,38.69
2023-03-27T10:13:28.848Z,39.39
2023-03-27T10:16:19.752Z,42.63
2023-03-27T10:19:30.220Z,45.07
2023-03-27T10:22:35.957Z,48.76
2023-03-27T10:25:33.640Z,52.09
2023-03-27T10:28:46.140Z,54.85
2023-03-27T10:31:49.317Z,55.92
2023-03-27T10:34:57.654Z,56.97
2023-03-27T10:38:15.006Z,56.31
2023-03-27T10:41:37.559Z,53.36
2023-03-27T10:44:27.766Z,50.81
2023-03-27T10:47:25.738Z,47.61
2023-03-27T10:50:33.126Z,45.87
2023-03-27T10:53:42.958Z,47.09
2023-03-27T10:56:52.588Z,48.82
2023-03-27T11:00:06.755Z,49.85
2023-03-27T11:03:22.456Z,53.73
2023-03-27T11:06:18.291Z,58.14
2023-03-27T11:09:18.589Z,60.97
2023-03-27T11:12:18.933Z,62.14
2023-03-27T11:15:41.730Z,62.75
2023-03-27T11:19:10.702Z,62.93
2023-03-27T11:22:28.284Z,61.76
2023-03-27T11:25:51.268Z,60.95
2023-03-27T11:28:49.102Z,61.45
2023-03-27T11:31:48.769Z,60.20
2023-03-27T11:35:04.203Z,59.84
2023-03-27T11:38:20.996Z,59.19
2023-03-27T11:41:14.644Z,57.09
2023-03-27T11:44:01.967Z,56.19
2023-03-27T11:48:12.340Z,56.22
2023-03-27T11:51:21.940Z,54.80
2023-03-27T11:54:29.993Z,53.71
2023-03-27T11:57:26.463Z,54.29
2023-03-27T12:00:31.299Z,54.44
2023-03-27T12:04:13.618Z,53.16
2023-03-27T12:07:36.146Z,54.15
2023-03-27T12:10:38.210Z,54.61
2023-03-27T12:14:40.424Z,51.19
2023-03-27T12:17:57.583Z,51.03
2023-03-27T12:21:19.807Z,49.46
2023-03-27T12:24:59.632Z,50.22
2023-03-27T12:28:22.768Z,51.47
2023-03-27T12:31:59.774Z,51.19
2023-03-27T12:34:56.639Z,51.67
2023-03-27T12:37:58.230Z,51.06
2023-03-27T12:41:00.333Z,52.29
2023-03-27T12:43:54.660Z,52.18
2023-03-27T12:47:22.171Z,51.79
2023-03-27T12:50:25.792Z,50.01
2023-03-27T12:53:32.784Z,49.24
2023-03-27T12:56:33.771Z,49.71
2023-03-27T12:59:27.587Z,49.33
2023-03-27T13:02:15.438Z,50.04
2023-03-27T13:05:32.079Z,50.85
2023-03-27T13:08:44.561Z,51.76
2023-03-27T13:12:36.098Z,52.36
2023-03-27T13:15:36.555Z,51.39
2023-03-27T13:19:06.693Z,51.43
2023-03-27T13:22:18.275Z,51.38
2023-03-27T13:25:45.368Z,49.19
2023-03-27T13:28:41.738Z,48.94
2023-03-27T13:31:46.078Z,48.29
2023-03-27T13:35:23.510Z,46.95
2023-03-27T13:38:12.942Z,47.23
2023-03-27T13:41:44.268Z,47.80
2023-03-27T13:45:14.758Z,46.56
2023-03-27T13:48:13.346Z,46.29
2023-03-27T13:51:34.277Z,45.94
2023-03-27T13:54:39.812Z,43.61
2023-03-27T13:57:55.875Z,44.36
2023-03-27T14:01:08.916Z,44.65
2023-03-27T14:04:35.200Z,44.34
2023-03-27T14:07:51.930Z,45.09
2023-03-27T14:11:03.920Z,45.32
2023-03-27T14:14:32.001Z,46.05
2023-03-27T14:17:21.925Z,46.16
2023-03-27T14:20:18.501Z,46.28
2023-03-27T14:23:14.564Z,46.55
2023-03-27T14:26:29.111Z,45.71
2023-03-27T14:29:16.370Z,44.78
2023-03-27T14:32:15.307Z,43.87
2023-03-27T14:35:24.799Z,44.01
2023-03-27T14:38:30.897Z,44.42
2023-03-27T14:41:21.635Z,45.37
2023-03-27T14:44:19.137Z,46.04
2023-03-27T14:47:13.163Z,46.52
2023-03-27T14:50:01.241Z,47.26
2023-03-27T14:52:59.611Z,48.06
2023-03-27T14:55:52.370Z,48.36
2023-03-27T14:59:28.259Z,49.42
2023-03-27T15:02:31.248Z,49.82
2023-03-27T15:05:22.061Z,50.61
2023-03-27T15:08:12.374Z,50.50
2023-03-27T15:11:32.827Z,51.59
2023-03-27T15:14:29.825Z,52.41
2023-03-27T15:17:19.680Z,53.14
2023-03-27T15:20:10.476Z,53.35
2023-03-27T15:23:11.979Z,54.15
2023-03-27T15:26:08.922Z,53.50
2023-03-27T15:29:03.565Z,53.61
2023-03-27T15:31:51.718Z,53.05
2023-03-27T15:34:47.817Z,53.05
2023-03-27T15:37:34.702Z,52.10
2023-03-27T15:40:31.190Z,52.00
2023-03-27T15:43:24.315Z,50.10
2023-03-27T15:46:20.934Z,48.92
2023-03-27T15:49:31.973Z,48.65
2023-03-27T15:52:32.325Z,48.96
2023-03-27T15:55:37.377Z,49.01
2023-03-27T15:58:28.400Z,48.88
2023-03-27T16:01:38.348Z,48.36
2023-03-27T16:04:45.556Z,48.05
2023-03-27T16:07:45.509Z,48.07
2023-03-27T16:10:33.371Z,48.52
2023-03-27T16:13:34.734Z,49.47
2023-03-27T16:16:38.128Z,48.91
2023-03-27T16:19:24.805Z,48.03
2023-03-27T16:22:12.667Z,47.80
2023-03-27T16:25:00.988Z,48.11
2023-03-27T16:27:54.083Z,48.98
2023-03-27T16:30:41.442Z,48.53
2023-03-27T16:33:28.934Z,48.79
2023-03-27T16:36:20.128Z,49.40
2023-03-27T16:39:08.685Z,50.32
2023-03-27T16:41:55.813Z,50.75
2023-03-27T16:44:44.468Z,51.28
2023-03-27T16:47:31.508Z,51.89
2023-03-27T16:50:22.904Z,52.45
2023-03-27T16:53:13.443Z,52.79
2023-03-27T16:56:00.473Z,53.10
2023-03-27T16:58:48.570Z,52.90
2023-03-27T17:01:35.410Z,52.91
2023-03-27T17:04:22.821Z,53.10
2023-03-27T17:07:10.093Z,53.37
2023-03-27T17:09:56.910Z,53.57
2023-03-27T17:12:44.140Z,54.23
2023-03-27T17:15:35.562Z,54.51
2023-03-27T17:18:25.405Z,55.02
2023-03-27T17:21:11.814Z,55.78
2023-03-27T17:24:01.520Z,56.36
2023-03-27T17:26:48.264Z,56.55
2023-03-27T17:29:34.574Z,57.81
2023-03-27T17:32:21.122Z,57.92
2023-03-27T17:35:08.717Z,57.97
2023-03-27T17:37:56.392Z,58.29
2023-03-27T17:40:43.041Z,58.70
2023-03-27T17:43:29.926Z,59.05
2023-03-27T17:46:16.178Z,59.15
2023-03-27T17:49:03.169Z,59.05
2023-03-27T17:51:50.088Z,59.75
2023-03-27T17:54:37.240Z,60.21
2023-03-27T17:57:23.818Z,60.50
2023-03-27T18:00:11.100Z,60.68
2023-03-27T18:03:03.179Z,60.96
2023-03-27T18:05:51.612Z,61.60
2023-03-27T18:08:38.663Z,61.92
2023-03-27T18:11:25.456Z,62.07
2023-03-27T18:14:12.731Z,61.71
2023-03-27T18:16:59.435Z,61.95
2023-03-27T18:19:49.702Z,62.17
2023-03-27T18:22:38.493Z,62.77
2023-03-27T18:25:25.197Z,63.16
2023-03-27T18:28:12.650Z,62.97
2023-03-27T18:31:07.705Z,62.72
2023-03-27T18:33:54.678Z,63.02
2023-03-27T18:36:41.961Z,63.27
2023-03-27T18:39:28.504Z,63.59
2023-03-27T18:42:15.041Z,63.59
2023-03-27T18:45:02.484Z,63.89
2023-03-27T18:47:49.175Z,63.99
2023-03-27T18:50:35.778Z,64.16
2023-03-27T18:53:23.135Z,64.58
2023-03-27T18:56:09.866Z,64.43
2023-03-27T18:58:56.512Z,64.80
2023-03-27T19:01:43.558Z,65.39
2023-03-27T19:04:31.159Z,65.40
2023-03-27T19:07:21.549Z,66.31
2023-03-27T19:10:09.864Z,67.05
2023-03-27T19:12:56.806Z,67.37
2023-03-27T19:16:02.387Z,67.41
2023-03-27T19:19:37.731Z,67.59
2023-03-27T19:22:40.854Z,67.28
2023-03-27T19:26:10.065Z,67.25
2023-03-27T19:29:00.510Z,68.03
2023-03-27T19:31:47.742Z,68.39
2023-03-27T19:34:42.319Z,68.63
2023-03-27T19:37:30.789Z,68.98
2023-03-27T19:40:19.933Z,69.67
2023-03-27T19:43:06.791Z,69.83
2023-03-27T19:46:04.390Z,70.04
2023-03-27T19:49:04.450Z,69.57
2023-03-27T19:52:20.772Z,69.97
2023-03-27T19:55:08.990Z,69.85
2023-03-27T20:01:37.151Z,70.26
2023-03-27T20:04:23.859Z,70.36
2023-03-27T20:07:10.596Z,70.71
2023-03-27T20:09:57.135Z,70.40
2023-03-27T20:12:43.955Z,70.33
2023-03-27T20:15:30.531Z,70.53
2023-03-27T20:18:19.433Z,70.37
2023-03-27T20:21:05.795Z,70.47
2023-03-27T20:23:55.181Z,70.66
2023-03-27T20:26:47.639Z,70.86
2023-03-27T20:29:36.696Z,71.08
2023-03-27T20:32:25.618Z,70.97
2023-03-27T20:35:23.561Z,71.14
2023-03-27T20:38:12.882Z,71.28
2023-03-27T20:41:10.525Z,71.07
2023-03-27T20:44:02.481Z,71.03
2023-03-27T20:46:54.547Z,71.22
2023-03-27T20:49:43.266Z,70.94
2023-03-27T20:52:30.544Z,71.05
2023-03-27T20:55:32.948Z,70.90
2023-03-27T20:58:28.472Z,71.00
2023-03-27T21:01:18.827Z,71.00
2023-03-27T21:04:06.370Z,71.03
2023-03-27T21:06:54.275Z,71.23
2023-03-27T21:09:43.607Z,71.06
2023-03-27T21:12:31.721Z,71.26
2023-03-27T21:15:18.946Z,71.24
2023-03-27T21:18:05.321Z,71.47
2023-03-27T21:20:52.597Z,71.55
2023-03-27T21:23:39.381Z,71.62
2023-03-27T21:26:25.667Z,71.82
2023-03-27T21:29:14.704Z,72.45
2023-03-27T21:32:01.146Z,72.57
2023-03-27T21:34:47.896Z,73.03
2023-03-27T21:37:34.295Z,73.19
2023-03-27T21:40:20.968Z,73.59
2023-03-27T21:43:08.448Z,73.59
2023-03-27T21:45:54.984Z,74.08
2023-03-27T21:48:44.029Z,74.48
2023-03-27T21:51:30.470Z,74.47
2023-03-27T21:54:17.106Z,74.64
2023-03-27T21:57:04.090Z,74.90
2023-03-27T21:59:50.246Z,74.78
2023-03-27T22:02:36.924Z,75.24
2023-03-27T22:05:24.034Z,75.55
2023-03-27T22:08:11.894Z,76.26
2023-03-27T22:11:01.312Z,76.12
2023-03-27T22:13:48.480Z,76.46
2023-03-27T22:16:34.874Z,76.12
2023-03-27T22:19:20.931Z,76.13
2023-03-27T22:22:07.237Z,76.12
2023-03-27T22:24:53.445Z,76.12
2023-03-27T22:27:40.605Z,76.10
2023-03-27T22:30:27.249Z,76.04
2023-03-27T22:33:16.317Z,75.93
2023-03-27T22:36:06.055Z,76.21
2023-03-27T22:38:53.806Z,76.23
2023-03-27T22:41:43.955Z,76.46
2023-03-27T22:44:32.653Z,76.33
2023-03-27T22:47:19.712Z,75.98
2023-03-27T22:50:09.535Z,75.57
2023-03-27T22:52:56.546Z,75.04
2023-03-27T22:55:51.823Z,74.24
2023-03-27T22:58:38.453Z,74.37
2023-03-27T23:01:25.959Z,74.45
2023-03-27T23:04:12.717Z,74.62
2023-03-27T23:07:01.959Z,75.00
2023-03-27T23:09:48.920Z,75.15
2023-03-27T23:12:35.820Z,76.07
2023-03-27T23:15:29.765Z,77.13
2023-03-27T23:18:21.221Z,78.20
2023-03-27T23:21:10.639Z,79.28
2023-03-27T23:23:57.437Z,80.18
2023-03-27T23:26:44.056Z,80.68
2023-03-27T23:29:31.432Z,81.64
2023-03-27T23:32:17.856Z,82.66
2023-03-27T23:35:10.325Z,83.25
2023-03-27T23:37:56.689Z,83.49
2023-03-27T23:40:43.148Z,84.00
2023-03-27T23:43:30.907Z,84.39
2023-03-27T23:46:17.363Z,84.74
2023-03-27T23:49:04.273Z,85.09
2023-03-27T23:51:50.562Z,85.32
2023-03-27T23:54:36.941Z,86.02
2023-03-27T23:57:24.954Z,86.50
